Time;durP1;ratioP1;P1;durP2;ratioP2;P2;SDS_P1;SDS_P2;PMS_P1;PMS_P2;Temp;Humidity;BMP_temperature;BMP_pressure;BME280_temperature;BME280_humidity;BME280_pressure;Samples;Min_cycle;Max_cycle;Signal;HPM_P1;HPM_P2
2023/02/23 00:00:27;;;;;;;13.38;6.28;;;10.90;99.90;;;;;;5010580;28;20046;-85
2023/02/23 00:02:57;;;;;;;13.38;6.90;;;10.90;99.90;;;;;;5019083;28;20498;-85
2023/02/23 00:05:25;;;;;;;;;;;10.90;99.90;;;;;;5019685;28;20050;-85
2023/02/23 00:07:53;;;;;;;12.18;6.15;;;10.90;99.90;;;;;;5021144;28;19921;-84
2023/02/23 00:10:20;;;;;;;10.32;6.70;;;10.90;99.90;;;;;;5027975;28;20420;-85
2023/02/23 00:12:50;;;;;;;13.63;6.25;;;10.90;99.90;;;;;;5015269;28;20160;-85
2023/02/23 00:15:17;;;;;;;16.55;7.07;;;10.90;99.90;;;;;;5020270;28;20140;-86
2023/02/23 00:17:46;;;;;;;10.88;5.95;;;10.90;99.90;;;;;;5021726;28;20077;-85
2023/02/23 00:20:15;;;;;;;14.73;6.53;;;10.80;99.90;;;;;;5026138;28;20080;-85
2023/02/23 00:22:42;;;;;;;16.65;6.93;;;10.80;99.90;;;;;;5038025;28;20095;-85
2023/02/23 00:25:14;;;;;;;12.50;6.70;;;10.80;99.90;;;;;;5026495;28;20406;-85
2023/02/23 00:27:44;;;;;;;10.55;5.63;;;10.80;99.90;;;;;;5016493;28;20053;-85
2023/02/23 00:30:12;;;;;;;13.43;6.22;;;10.80;99.90;;;;;;5021254;28;20137;-86
2023/02/23 00:32:39;;;;;;;16.77;6.72;;;10.80;99.90;;;;;;5023919;28;20049;-86
2023/02/23 00:35:11;;;;;;;14.00;6.22;;;10.90;99.90;;;;;;5028212;28;20046;-85
2023/02/23 00:37:38;;;;;;;13.95;6.35;;;10.90;99.90;;;;;;5026822;28;20059;-85
2023/02/23 00:40:12;;;;;;;14.05;5.97;;;10.90;99.90;;;;;;5024482;28;20042;-85
2023/02/23 00:42:39;;;;;;;10.60;6.25;;;10.90;99.90;;;;;;5013502;28;20045;-85
2023/02/23 00:45:10;;;;;;;9.50;5.55;;;10.90;99.90;;;;;;5016896;28;20042;-85
2023/02/23 00:47:42;;;;;;;11.52;5.78;;;10.90;99.90;;;;;;5021887;28;20056;-85
2023/02/23 00:50:15;;;;;;;9.80;5.78;;;10.90;99.90;;;;;;5016189;28;20050;-85
2023/02/23 00:52:42;;;;;;;12.63;6.43;;;10.90;99.90;;;;;;5025897;28;20049;-85
2023/02/23 00:55:14;;;;;;;15.45;6.40;;;10.90;99.90;;;;;;5033189;28;20053;-85
2023/02/23 00:57:40;;;;;;;11.80;6.25;;;10.80;99.90;;;;;;5036077;28;20136;-86
2023/02/23 01:00:17;;;;;;;11.73;6.00;;;10.90;99.90;;;;;;5021787;28;20042;-86
2023/02/23 01:02:44;;;;;;;13.98;7.22;;;10.80;99.90;;;;;;5022519;28;20054;-85
2023/02/23 01:05:12;;;;;;;13.43;6.57;;;10.80;99.90;;;;;;5025164;28;20407;-85
2023/02/23 01:07:39;;;;;;;14.48;6.75;;;10.80;99.90;;;;;;5025726;28;20136;-85
2023/02/23 01:10:19;;;;;;;11.43;6.22;;;10.80;99.90;;;;;;5013760;28;20052;-85
2023/02/23 01:12:48;;;;;;;13.32;7.10;;;10.80;99.90;;;;;;5033561;28;20488;-85
2023/02/23 01:15:16;;;;;;;9.93;6.40;;;10.80;99.90;;;;;;5024151;28;20069;-86
2023/02/23 01:17:44;;;;;;;11.90;7.10;;;10.80;99.90;;;;;;5031453;28;20088;-86
2023/02/23 01:20:18;;;;;;;11.77;7.05;;;10.80;99.90;;;;;;5028282;28;20504;-85
2023/02/23 01:22:50;;;;;;;14.23;6.55;;;10.80;99.90;;;;;;5020887;28;20088;-86
2023/02/23 01:25:17;;;;;;;16.92;7.00;;;10.80;99.90;;;;;;5012943;28;20110;-85
2023/02/23 01:27:44;;;;;;;9.65;6.28;;;10.70;99.90;;;;;;5017455;28;20050;-86
2023/02/23 01:30:13;;;;;;;12.65;6.63;;;10.70;99.90;;;;;;5024275;28;20136;-85
2023/02/23 01:32:40;;;;;;;16.17;6.60;;;10.70;99.90;;;;;;5022961;28;20053;-86
2023/02/23 01:35:09;;;;;;;13.52;6.25;;;10.70;99.90;;;;;;5025435;28;20050;-86
2023/02/23 01:37:39;;;;;;;12.73;6.75;;;10.70;99.90;;;;;;5016703;28;20053;-86
2023/02/23 01:40:13;;;;;;;16.65;6.32;;;10.70;99.90;;;;;;5016398;28;20424;-84
2023/02/23 01:42:43;;;;;;;15.02;7.13;;;10.70;99.90;;;;;;5033709;28;20077;-85
2023/02/23 01:45:21;;;;;;;15.15;6.63;;;10.70;99.90;;;;;;5024801;28;20045;-86
2023/02/23 01:47:51;;;;;;;14.00;6.53;;;10.70;99.90;;;;;;5044129;28;20050;-85
2023/02/23 01:50:18;;;;;;;12.68;6.75;;;10.70;99.90;;;;;;5021271;28;20046;-85
2023/02/23 01:52:49;;;;;;;10.18;5.93;;;10.70;99.90;;;;;;5016490;28;20058;-85
2023/02/23 01:55:22;;;;;;;12.15;6.03;;;10.70;99.90;;;;;;5017612;28;20041;-85
2023/02/23 01:57:54;;;;;;;13.77;6.38;;;10.70;99.90;;;;;;5018428;28;20056;-85
2023/02/23 02:00:24;;;;;;;12.68;6.97;;;10.70;99.90;;;;;;5038659;28;20052;-85
2023/02/23 02:02:52;;;;;;;11.07;6.03;;;10.70;99.90;;;;;;5027382;28;20049;-85
2023/02/23 02:05:19;;;;;;;9.23;5.57;;;10.70;99.90;;;;;;5024721;28;20049;-85
2023/02/23 02:07:57;;;;;;;11.35;5.97;;;10.70;99.90;;;;;;5013122;28;20050;-85
2023/02/23 02:10:39;;;;;;;8.93;5.25;;;10.70;99.90;;;;;;5027758;28;20057;-85
2023/02/23 02:13:09;;;;;;;11.05;5.30;;;10.70;99.90;;;;;;5022878;28;20057;-85
2023/02/23 02:15:52;;;;;;;10.88;5.50;;;10.70;99.90;;;;;;5025433;28;20144;-85
2023/02/23 02:18:29;;;;;;;11.23;5.88;;;10.70;99.90;;;;;;5022204;28;20569;-86
2023/02/23 02:21:23;;;;;;;16.00;6.47;;;10.70;99.90;;;;;;5012612;28;20049;-86
2023/02/23 02:24:15;;;;;;;13.05;5.90;;;10.60;99.90;;;;;;5032128;28;20052;-85
2023/02/23 02:26:59;;;;;;;9.35;5.50;;;10.60;99.90;;;;;;5019581;28;20052;-85
2023/02/23 02:29:42;;;;;;;11.95;5.63;;;10.60;99.90;;;;;;5024904;28;20053;-85
2023/02/23 02:32:24;;;;;;;10.48;5.97;;;10.60;99.90;;;;;;5027050;28;20089;-85
2023/02/23 02:35:26;;;;;;;11.07;5.63;;;10.60;99.90;;;;;;5022242;28;20132;-86
2023/02/23 02:38:24;;;;;;;16.48;6.68;;;10.60;99.90;;;;;;4991072;28;20049;-85
2023/02/23 02:41:00;;;;;;;15.88;7.07;;;10.50;99.90;;;;;;5020558;28;20574;-86
2023/02/23 02:43:49;;;;;;;13.80;7.00;;;10.50;99.90;;;;;;5022994;28;20524;-85
2023/02/23 02:46:25;;;;;;;17.77;6.70;;;10.50;99.90;;;;;;5019545;28;20085;-85
2023/02/23 02:49:16;;;;;;;12.30;6.30;;;10.50;99.90;;;;;;5013584;28;20054;-85
2023/02/23 02:51:54;;;;;;;14.85;6.78;;;10.50;99.90;;;;;;5030616;28;20049;-85
2023/02/23 02:54:41;;;;;;;17.85;8.27;;;10.50;99.90;;;;;;5021405;28;20049;-86
2023/02/23 02:57:10;;;;;;;14.15;6.93;;;10.60;99.90;;;;;;5023862;28;20492;-86
2023/02/23 04:17:55;;;;;;;14.82;7.13;;;10.60;99.90;;;;;;5022042;28;20050;-85
2023/02/23 04:20:23;;;;;;;12.82;7.78;;;10.60;99.90;;;;;;5024390;28;20413;-85
2023/02/23 04:22:50;;;;;;;13.32;7.28;;;10.60;99.90;;;;;;5027054;28;20595;-85
2023/02/23 04:25:21;;;;;;;11.55;7.63;;;10.60;99.90;;;;;;5030218;28;20073;-86
2023/02/23 04:27:51;;;;;;;12.88;7.55;;;10.60;99.90;;;;;;5024576;28;20055;-86
2023/02/23 04:30:24;;;;;;;12.27;7.40;;;10.50;99.90;;;;;;5019754;28;20140;-85
2023/02/23 04:32:54;;;;;;;16.92;7.03;;;10.50;99.90;;;;;;5037995;28;20233;-85
2023/02/23 04:35:21;;;;;;;;;;;10.50;99.90;;;;;;5021632;28;20057;-85
2023/02/23 04:37:48;;;;;;;17.65;7.88;;;10.50;99.90;;;;;;5030077;28;19944;-85
2023/02/23 04:40:14;;;;;;;14.77;7.47;;;10.50;99.90;;;;;;5030647;28;20046;-86
2023/02/23 04:42:41;;;;;;;13.05;6.95;;;10.60;99.90;;;;;;5038525;28;20304;-86
2023/02/23 04:45:09;;;;;;;11.13;7.40;;;10.60;99.90;;;;;;5044190;28;20045;-86
2023/02/23 04:47:36;;;;;;;13.85;7.03;;;10.50;99.90;;;;;;5062362;28;20187;-87
2023/02/23 04:50:03;;;;;;;10.68;6.75;;;10.60;99.90;;;;;;5038348;28;20026;-88
2023/02/23 04:52:30;;;;;;;11.18;6.80;;;10.60;99.90;;;;;;5053712;28;20078;-86
2023/02/23 04:54:57;;;;;;;12.10;7.05;;;10.50;99.90;;;;;;5047531;28;20064;-85
2023/02/23 04:57:24;;;;;;;14.10;7.32;;;10.60;99.90;;;;;;5047174;28;20041;-85
2023/02/23 04:59:51;;;;;;;12.80;7.90;;;10.60;99.90;;;;;;5013030;28;20055;-85
2023/02/23 05:02:18;;;;;;;17.05;8.38;;;10.50;99.90;;;;;;5019479;28;20078;-85
2023/02/23 05:04:44;;;;;;;12.73;7.60;;;10.60;99.90;;;;;;5026495;28;20073;-85
2023/02/23 05:07:11;;;;;;;10.05;7.28;;;10.50;99.90;;;;;;5030201;28;20053;-85
2023/02/23 05:09:38;;;;;;;12.32;7.82;;;10.50;99.90;;;;;;5026690;28;20053;-86
2023/02/23 05:12:23;;;;;;;13.25;7.45;;;10.50;99.90;;;;;;5015768;28;20084;-86
2023/02/23 05:14:50;;;;;;;15.65;7.43;;;10.50;99.90;;;;;;5018006;28;20049;-86
2023/02/23 05:17:17;;;;;;;15.55;7.90;;;10.50;99.90;;;;;;5017873;28;20042;-85
2023/02/23 05:19:46;;;;;;;14.52;7.97;;;10.50;99.90;;;;;;5032909;28;20471;-85
2023/02/23 05:22:14;;;;;;;12.93;7.93;;;10.60;99.90;;;;;;5016533;28;20054;-85
2023/02/23 05:24:44;;;;;;;13.25;7.72;;;10.60;99.90;;;;;;5032781;28;20054;-85
2023/02/23 05:27:23;;;;;;;14.75;7.75;;;10.60;99.90;;;;;;5022999;28;20049;-85
2023/02/23 05:29:49;;;;;;;13.80;7.75;;;10.60;99.90;;;;;;5022223;28;20137;-86
2023/02/23 05:32:16;;;;;;;13.13;8.02;;;10.60;99.90;;;;;;5018385;28;20042;-86
2023/02/23 05:34:43;;;;;;;12.70;7.85;;;10.60;99.90;;;;;;5023220;28;20421;-86
2023/02/23 05:37:13;;;;;;;15.77;7.93;;;10.60;99.90;;;;;;5012433;28;20046;-85
2023/02/23 05:39:40;;;;;;;13.02;8.00;;;10.60;99.90;;;;;;5017434;28;20052;-86
2023/02/23 05:42:07;;;;;;;14.75;8.18;;;10.60;99.90;;;;;;5020481;28;20046;-86
2023/02/23 05:44:33;;;;;;;11.65;8.77;;;10.60;99.90;;;;;;5018841;28;20092;-86
2023/02/23 05:47:00;;;;;;;17.92;8.98;;;10.60;99.90;;;;;;5012215;28;20056;-85
2023/02/23 05:49:27;;;;;;;15.35;8.55;;;10.60;99.90;;;;;;5033539;28;20111;-85
2023/02/23 05:51:54;;;;;;;16.25;8.23;;;10.60;99.90;;;;;;5026618;28;20050;-85
2023/02/23 05:54:21;;;;;;;19.42;8.63;;;10.60;99.90;;;;;;5018292;28;20065;-84
2023/02/23 05:56:48;;;;;;;16.15;8.77;;;10.60;99.90;;;;;;5023050;28;20132;-82
2023/02/23 05:59:16;;;;;;;18.45;8.95;;;10.60;99.90;;;;;;5013338;28;20069;-85
2023/02/23 06:01:42;;;;;;;12.90;8.35;;;10.60;99.90;;;;;;5013157;28;20084;-85
2023/02/23 06:04:09;;;;;;;13.25;8.95;;;10.60;99.90;;;;;;5018652;28;20054;-85
2023/02/23 06:06:36;;;;;;;18.83;8.57;;;10.60;99.90;;;;;;5015450;28;20750;-84
2023/02/23 06:09:03;;;;;;;12.65;8.52;;;10.60;99.90;;;;;;5018254;28;20085;-85
2023/02/23 06:11:30;;;;;;;16.45;8.15;;;10.60;99.90;;;;;;5020046;28;20076;-85
2023/02/23 06:13:58;;;;;;;13.77;8.25;;;10.70;99.90;;;;;;5023773;28;20180;-85
2023/02/23 06:16:26;;;;;;;15.23;8.20;;;10.70;99.90;;;;;;5045059;28;20056;-85
2023/02/23 06:18:53;;;;;;;11.50;7.28;;;10.70;99.90;;;;;;5016709;28;20046;-85
2023/02/23 06:21:20;;;;;;;14.55;6.68;;;10.70;99.90;;;;;;5010869;28;20042;-85
2023/02/23 06:23:47;;;;;;;15.02;7.65;;;10.60;99.90;;;;;;5018625;28;20050;-85
2023/02/23 06:26:13;;;;;;;14.00;7.38;;;10.60;99.90;;;;;;5024550;28;20497;-85
2023/02/23 06:28:40;;;;;;;15.60;6.80;;;10.60;99.90;;;;;;5022693;28;20504;-85
2023/02/23 06:31:07;;;;;;;14.27;6.78;;;10.60;99.90;;;;;;5021793;28;20053;-85
2023/02/23 06:33:34;;;;;;;12.52;7.25;;;10.60;99.90;;;;;;5009986;28;20054;-85
2023/02/23 06:36:09;;;;;;;13.73;7.20;;;10.60;99.90;;;;;;5018498;28;20081;-85
2023/02/23 06:38:36;;;;;;;11.43;6.95;;;10.60;99.90;;;;;;5020173;28;20045;-85
2023/02/23 06:41:08;;;;;;;14.25;7.15;;;10.60;99.90;;;;;;5025439;28;20104;-84
2023/02/23 06:43:35;;;;;;;16.23;7.25;;;10.70;99.90;;;;;;5028552;28;20079;-85
2023/02/23 06:46:05;;;;;;;14.93;7.72;;;10.70;99.90;;;;;;5028463;28;20492;-85
2023/02/23 06:48:32;;;;;;;11.38;6.22;;;10.70;99.90;;;;;;5018761;28;20064;-85
2023/02/23 06:50:59;;;;;;;14.98;6.32;;;10.70;99.90;;;;;;5017145;28;20133;-85
2023/02/23 06:53:26;;;;;;;13.98;7.03;;;10.70;99.90;;;;;;5021115;28;20460;-85
2023/02/23 06:55:53;;;;;;;23.38;8.52;;;10.70;99.90;;;;;;5026630;28;20080;-84
2023/02/23 06:58:20;;;;;;;19.48;8.38;;;10.70;99.90;;;;;;5043236;28;20049;-85
2023/02/23 07:00:47;;;;;;;15.05;9.40;;;10.80;99.90;;;;;;5019319;28;20081;-86
2023/02/23 07:03:13;;;;;;;21.98;9.80;;;10.80;99.90;;;;;;5017832;28;20050;-85
2023/02/23 07:05:40;;;;;;;17.25;8.40;;;10.80;99.90;;;;;;5023218;28;20045;-85
2023/02/23 07:08:07;;;;;;;21.65;8.50;;;10.80;99.90;;;;;;5026888;28;20069;-85
2023/02/23 07:10:34;;;;;;;16.00;7.32;;;10.90;99.90;;;;;;5027094;28;20095;-85
2023/02/23 07:13:00;;;;;;;18.95;9.55;;;10.90;99.90;;;;;;5023834;28;20057;-84
2023/02/23 07:15:27;;;;;;;14.45;9.32;;;10.90;99.90;;;;;;5019241;28;20528;-85
2023/02/23 07:17:54;;;;;;;24.00;13.75;;;10.90;99.90;;;;;;5016590;28;20042;-85
2023/02/23 07:20:21;;;;;;;19.77;12.07;;;10.90;99.90;;;;;;5023023;28;20498;-85
2023/02/23 07:22:48;;;;;;;19.20;11.98;;;10.90;99.90;;;;;;5039165;28;20045;-84
2023/02/23 07:25:14;;;;;;;18.52;11.32;;;10.90;99.90;;;;;;5026243;28;20038;-85
2023/02/23 07:27:41;;;;;;;24.80;11.65;;;10.90;99.90;;;;;;5031831;28;20049;-85
2023/02/23 07:30:09;;;;;;;15.57;9.13;;;10.90;99.90;;;;;;5010719;28;20534;-85
2023/02/23 07:32:38;;;;;;;;;;;11.00;99.90;;;;;;5017229;28;20054;-84
2023/02/23 07:35:05;;;;;;;13.85;7.25;;;11.00;99.90;;;;;;5019545;28;19968;-84
2023/02/23 07:37:32;;;;;;;12.50;8.90;;;11.00;99.90;;;;;;5023235;28;20054;-84
2023/02/23 07:39:59;;;;;;;21.38;8.88;;;11.00;99.90;;;;;;5023102;28;20133;-84
2023/02/23 07:42:27;;;;;;;13.68;7.82;;;11.00;99.90;;;;;;5026279;28;20485;-85
2023/02/23 07:44:53;;;;;;;15.55;8.30;;;11.00;99.90;;;;;;5014712;28;20050;-85
2023/02/23 07:47:21;;;;;;;12.60;7.68;;;11.10;99.90;;;;;;5017896;28;20081;-85
2023/02/23 07:49:48;;;;;;;13.68;8.07;;;11.10;99.90;;;;;;5022533;28;20050;-85
2023/02/23 07:52:18;;;;;;;13.27;7.78;;;11.10;99.90;;;;;;5024043;28;20053;-84
2023/02/23 07:54:45;;;;;;;17.50;8.00;;;11.20;99.90;;;;;;5028512;28;20155;-84
2023/02/23 07:57:12;;;;;;;14.93;7.53;;;11.20;99.90;;;;;;5015454;28;20116;-85
2023/02/23 07:59:49;;;;;;;13.75;7.95;;;11.20;99.90;;;;;;5013340;28;20557;-84
2023/02/23 08:02:16;;;;;;;14.63;8.32;;;11.20;99.90;;;;;;5021268;28;20052;-85
2023/02/23 08:04:43;;;;;;;14.23;7.97;;;11.30;99.90;;;;;;5021470;28;20045;-85
2023/02/23 08:07:09;;;;;;;15.85;8.95;;;11.30;99.90;;;;;;5024277;28;20449;-85
2023/02/23 08:09:37;;;;;;;15.80;8.45;;;11.30;99.90;;;;;;5029781;28;20049;-84
2023/02/23 08:12:04;;;;;;;14.88;8.45;;;11.30;99.90;;;;;;5023891;28;20057;-84
2023/02/23 08:14:33;;;;;;;15.93;8.63;;;11.30;99.90;;;;;;5013195;28;20058;-85
2023/02/23 08:17:00;;;;;;;17.25;9.45;;;11.40;99.90;;;;;;5016502;28;20049;-84
2023/02/23 08:19:28;;;;;;;16.30;9.63;;;11.40;99.90;;;;;;5023624;28;20099;-85
2023/02/23 08:21:55;;;;;;;18.27;10.60;;;11.50;99.90;;;;;;5021104;28;20054;-85
2023/02/23 08:24:23;;;;;;;18.42;10.00;;;11.60;99.90;;;;;;5025867;28;20062;-84
2023/02/23 08:26:50;;;;;;;21.83;9.15;;;11.60;99.90;;;;;;5017668;28;20050;-84
2023/02/23 08:29:17;;;;;;;15.88;8.77;;;11.70;99.90;;;;;;5021226;28;20557;-85
2023/02/23 08:31:44;;;;;;;20.88;9.27;;;11.70;99.90;;;;;;5024045;28;20087;-84
2023/02/23 08:34:12;;;;;;;18.23;9.50;;;11.80;99.90;;;;;;5027910;28;20060;-84
2023/02/23 08:36:39;;;;;;;17.52;8.48;;;11.90;99.90;;;;;;5037657;28;20566;-84
2023/02/23 08:39:08;;;;;;;12.98;8.75;;;12.00;99.90;;;;;;5036688;28;20046;-85
2023/02/23 08:41:35;;;;;;;15.25;8.52;;;12.10;99.90;;;;;;5022807;28;20059;-85
2023/02/23 08:44:02;;;;;;;16.58;8.82;;;12.10;99.90;;;;;;5028473;28;20053;-85
2023/02/23 08:46:29;;;;;;;15.73;8.63;;;12.20;99.90;;;;;;5035378;28;20113;-84
2023/02/23 08:48:56;;;;;;;14.82;6.72;;;12.20;99.90;;;;;;5041249;28;20060;-86
2023/02/23 08:51:22;;;;;;;11.05;6.15;;;12.30;99.90;;;;;;5063895;28;20105;-85
2023/02/23 08:53:49;;;;;;;13.85;6.82;;;12.30;99.90;;;;;;5043560;28;20105;-85
2023/02/23 08:56:16;;;;;;;8.90;5.72;;;12.40;99.90;;;;;;5037724;28;20029;-84
2023/02/23 08:58:43;;;;;;;11.52;5.43;;;12.40;99.90;;;;;;5045996;28;20089;-86
2023/02/23 09:01:18;;;;;;;10.82;5.18;;;12.40;99.90;;;;;;5049628;28;20040;-85
2023/02/23 09:03:46;;;;;;;8.77;5.45;;;12.50;99.90;;;;;;5051858;28;20073;-85
2023/02/23 09:06:16;;;;;;;11.63;6.55;;;12.50;99.90;;;;;;5051052;28;20032;-85
2023/02/23 09:08:43;;;;;;;10.65;5.65;;;12.60;99.90;;;;;;5027932;28;20057;-85
2023/02/23 09:11:10;;;;;;;9.38;5.97;;;12.60;99.90;;;;;;5018411;28;20054;-84
2023/02/23 09:13:36;;;;;;;10.60;5.82;;;12.60;99.90;;;;;;5023523;28;20140;-85
2023/02/23 09:16:03;;;;;;;11.10;5.35;;;12.70;99.90;;;;;;5023956;28;20139;-85
2023/02/23 09:18:31;;;;;;;12.20;6.20;;;12.70;99.90;;;;;;5045953;28;20052;-84
2023/02/23 09:20:58;;;;;;;11.52;5.70;;;12.80;99.90;;;;;;5033633;28;20089;-85
2023/02/23 09:23:28;;;;;;;9.30;4.70;;;12.80;99.90;;;;;;5019060;28;20484;-85
2023/02/23 09:25:55;;;;;;;13.93;5.13;;;12.80;99.90;;;;;;5017029;28;20046;-85
2023/02/23 09:28:22;;;;;;;9.80;4.72;;;12.80;99.90;;;;;;5021834;28;20060;-85
2023/02/23 09:30:48;;;;;;;12.45;5.40;;;12.80;99.90;;;;;;5027878;28;20104;-85
2023/02/23 09:33:16;;;;;;;11.23;4.65;;;12.80;99.90;;;;;;5024909;28;20054;-85
2023/02/23 09:35:43;;;;;;;11.07;4.43;;;12.80;99.90;;;;;;5026837;28;20049;-85
2023/02/23 09:38:09;;;;;;;12.32;5.03;;;12.90;99.90;;;;;;5016369;28;20416;-85
2023/02/23 09:40:54;;;;;;;11.73;5.07;;;12.90;99.90;;;;;;5021458;28;20045;-85
2023/02/23 09:43:36;;;;;;;10.32;4.50;;;12.90;99.90;;;;;;5025292;28;20461;-85
2023/02/23 09:46:32;;;;;;;10.00;4.70;;;13.00;99.90;;;;;;5028085;28;20045;-85
2023/02/23 09:49:02;;;;;;;10.07;3.92;;;13.00;99.90;;;;;;5020427;28;20156;-84
2023/02/23 09:51:31;;;;;;;11.02;4.85;;;13.10;99.90;;;;;;5010902;28;20478;-85
2023/02/23 09:54:01;;;;;;;9.85;5.53;;;13.10;99.90;;;;;;5018413;28;20050;-85
2023/02/23 09:56:39;;;;;;;12.98;5.25;;;13.10;99.90;;;;;;5028253;28;20064;-85
2023/02/23 09:59:12;;;;;;;8.70;4.65;;;13.10;99.90;;;;;;5026579;28;20588;-85
2023/02/23 10:01:47;;;;;;;10.57;5.35;;;13.20;99.90;;;;;;5031257;28;20105;-85
2023/02/23 10:04:42;;;;;;;9.10;5.18;;;13.20;99.90;;;;;;5023219;28;20051;-85
2023/02/23 10:07:27;;;;;;;15.40;6.10;;;13.20;99.90;;;;;;5037880;28;20053;-85
2023/02/23 10:10:14;;;;;;;13.57;6.38;;;13.30;99.90;;;;;;5042914;28;20034;-85
2023/02/23 10:12:47;;;;;;;9.32;5.40;;;13.40;99.90;;;;;;5046353;28;20201;-85
2023/02/23 10:15:33;;;;;;;13.75;6.25;;;13.40;99.90;;;;;;5045071;28;20046;-85
2023/02/23 10:18:20;;;;;;;10.15;6.25;;;13.40;99.90;;;;;;5038093;28;20045;-85
2023/02/23 10:21:16;;;;;;;19.20;8.95;;;13.50;99.90;;;;;;5015651;28;20505;-85
2023/02/23 10:24:05;;;;;;;11.65;6.57;;;13.50;99.90;;;;;;5020065;28;20099;-84
2023/02/23 10:26:45;;;;;;;11.23;6.43;;;13.50;99.90;;;;;;5024018;28;20100;-84
2023/02/23 10:29:34;;;;;;;13.10;7.10;;;13.60;99.90;;;;;;5025409;28;20053;-85
2023/02/23 10:32:04;;;;;;;14.30;7.32;;;13.60;99.90;;;;;;5027433;28;20061;-85
2023/02/23 10:34:31;;;;;;;15.25;7.55;;;13.60;99.90;;;;;;5027064;28;20104;-86
2023/02/23 10:37:00;;;;;;;12.40;6.55;;;13.60;99.90;;;;;;5016756;28;20136;-85
2023/02/23 10:39:31;;;;;;;13.32;6.45;;;13.70;99.90;;;;;;5023652;28;20049;-85
2023/02/23 10:42:01;;;;;;;12.10;6.53;;;13.70;99.90;;;;;;5041470;28;20125;-85
2023/02/23 10:44:29;;;;;;;12.50;6.65;;;13.60;99.90;;;;;;5039301;28;20056;-84
2023/02/23 10:47:06;;;;;;;11.82;6.50;;;13.60;99.90;;;;;;5021872;28;20054;-85
2023/02/23 10:49:49;;;;;;;13.13;7.05;;;13.60;99.90;;;;;;5015796;28;20077;-85
2023/02/23 10:52:23;;;;;;;11.45;6.28;;;13.50;99.90;;;;;;5036116;28;20058;-85
2023/02/23 10:54:51;;;;;;;15.05;6.22;;;13.50;99.90;;;;;;5027245;28;20058;-85
2023/02/23 10:57:31;;;;;;;12.05;6.32;;;13.40;99.90;;;;;;5029421;28;20049;-84
2023/02/23 11:00:00;;;;;;;11.77;5.72;;;13.40;99.90;;;;;;5022775;28;20041;-85
2023/02/23 11:02:29;;;;;;;12.15;6.78;;;13.40;99.90;;;;;;5017073;28;20129;-85
2023/02/23 11:04:57;;;;;;;12.70;6.53;;;13.30;99.90;;;;;;5018802;28;20045;-86
2023/02/23 11:07:28;;;;;;;14.70;5.50;;;13.20;99.90;;;;;;5020802;28;20420;-83
2023/02/23 11:09:56;;;;;;;12.13;5.38;;;13.20;99.90;;;;;;5024722;28;20056;-84
2023/02/23 11:12:36;;;;;;;13.07;5.72;;;13.20;99.90;;;;;;5027567;28;20139;-84
2023/02/23 11:15:25;;;;;;;11.07;5.28;;;13.20;99.90;;;;;;5021500;28;20523;-84
2023/02/23 11:18:22;;;;;;;11.07;5.38;;;13.10;99.90;;;;;;5019849;28;20057;-84
2023/02/23 11:20:49;;;;;;;12.35;5.18;;;13.10;99.90;;;;;;5019799;28;20054;-84
2023/02/23 11:23:33;;;;;;;13.45;5.53;;;13.10;99.90;;;;;;5025092;28;20421;-85
2023/02/23 11:26:02;;;;;;;11.10;4.90;;;13.10;99.90;;;;;;5024040;28;20046;-85
2023/02/23 11:28:33;;;;;;;13.95;5.60;;;13.10;99.90;;;;;;5038960;28;20136;-84
2023/02/23 11:31:07;;;;;;;18.02;7.32;;;13.10;99.90;;;;;;5028950;28;20416;-84
2023/02/23 11:33:37;;;;;;;17.85;7.28;;;13.10;99.90;;;;;;5017898;28;20080;-84
2023/02/23 11:36:13;;;;;;;11.48;5.80;;;13.20;99.90;;;;;;5036749;28;20072;-84
2023/02/23 11:38:39;;;;;;;13.85;6.03;;;13.20;99.90;;;;;;5023964;28;20132;-84
2023/02/23 11:41:23;;;;;;;18.73;6.13;;;13.20;99.90;;;;;;5032006;28;20556;-84
2023/02/23 11:43:51;;;;;;;15.75;7.32;;;13.30;99.90;;;;;;5017676;28;20074;-84
2023/02/23 11:46:21;;;;;;;15.43;7.13;;;13.30;99.90;;;;;;5029552;28;20081;-84
2023/02/23 11:48:48;;;;;;;13.45;6.65;;;13.30;99.90;;;;;;5038075;28;20488;-85
2023/02/23 11:51:37;;;;;;;16.80;6.47;;;13.40;99.90;;;;;;5040627;28;20081;-85
2023/02/23 11:54:06;;;;;;;12.20;5.93;;;13.40;99.90;;;;;;5038948;28;20132;-86
2023/02/23 11:56:34;;;;;;;13.45;5.88;;;13.40;99.90;;;;;;5044397;28;20050;-84
2023/02/23 11:59:06;;;;;;;10.10;5.63;;;13.50;99.90;;;;;;5036540;28;20046;-84
2023/02/23 12:01:45;;;;;;;12.10;5.65;;;13.50;99.90;;;;;;5027816;28;20478;-84
2023/02/23 12:04:29;;;;;;;13.63;5.90;;;13.50;99.90;;;;;;5043468;28;20050;-84
2023/02/23 12:07:37;;;;;;;12.40;5.60;;;13.60;99.90;;;;;;5033215;28;20124;-85
2023/02/23 12:10:17;;;;;;;13.10;5.72;;;13.60;99.90;;;;;;5030271;28;20104;-84
2023/02/23 12:13:06;;;;;;;14.07;5.45;;;13.50;99.90;;;;;;5025926;28;20568;-84
2023/02/23 12:15:51;;;;;;;13.73;5.53;;;13.50;99.90;;;;;;5000646;28;20046;-84
2023/02/23 12:18:37;;;;;;;14.07;5.75;;;13.50;99.90;;;;;;5023630;28;20042;-84
2023/02/23 12:21:13;;;;;;;11.65;5.82;;;13.60;99.90;;;;;;5026398;28;20049;-84
2023/02/23 12:23:43;;;;;;;17.40;7.25;;;13.60;99.90;;;;;;5030472;28;20077;-85
2023/02/23 12:26:21;;;;;;;17.58;6.65;;;13.60;99.90;;;;;;5019938;28;20050;-83
2023/02/23 12:29:14;;;;;;;20.08;6.82;;;13.60;99.90;;;;;;5019452;28;20497;-85
2023/02/23 12:31:50;;;;;;;12.68;5.47;;;13.60;99.90;;;;;;5018191;28;20146;-84
2023/02/23 12:34:22;;;;;;;10.85;5.05;;;13.60;99.90;;;;;;5030343;28;20045;-84
2023/02/23 12:36:58;;;;;;;13.70;5.43;;;13.70;99.90;;;;;;5024402;28;20133;-85
2023/02/23 12:39:37;;;;;;;14.32;5.38;;;13.70;99.90;;;;;;5020262;28;20125;-84
2023/02/23 12:42:28;;;;;;;10.75;5.00;;;13.80;99.90;;;;;;5019046;28;20088;-84
2023/02/23 12:44:58;;;;;;;14.73;6.00;;;13.80;99.90;;;;;;5022282;28;20042;-84
2023/02/23 12:47:40;;;;;;;12.07;6.10;;;13.80;99.90;;;;;;5027679;28;20056;-84
2023/02/23 12:50:49;;;;;;;22.08;5.72;;;13.80;99.90;;;;;;5032333;28;20401;-84
2023/02/23 12:53:25;;;;;;;20.20;5.30;;;13.80;99.90;;;;;;5022651;28;20457;-85
2023/02/23 12:56:18;;;;;;;11.98;5.50;;;13.80;99.90;;;;;;5019133;28;20410;-84
2023/02/23 12:59:24;;;;;;;14.57;4.97;;;13.90;99.90;;;;;;5020764;28;20081;-84
2023/02/23 13:01:59;;;;;;;13.52;4.68;;;13.90;99.90;;;;;;5027165;28;20517;-85
2023/02/23 13:05:11;;;;;;;13.32;4.95;;;13.90;99.90;;;;;;5031290;28;20078;-84
2023/02/23 13:08:11;;;;;;;9.93;4.90;;;14.00;99.90;;;;;;5027379;28;20064;-84
2023/02/23 13:11:26;;;;;;;14.05;5.22;;;14.00;99.90;;;;;;4989233;28;20050;-84
2023/02/23 13:14:29;;;;;;;11.88;5.20;;;14.00;99.90;;;;;;4998136;28;20126;-86
2023/02/23 13:17:04;;;;;;;11.07;4.50;;;14.10;99.90;;;;;;5018038;28;20088;-85
2023/02/23 13:19:45;;;;;;;11.30;4.10;;;14.10;99.90;;;;;;5025752;28;20093;-85
2023/02/23 13:22:25;;;;;;;14.02;4.35;;;14.10;99.90;;;;;;5021099;28;20425;-85
2023/02/23 13:24:56;;;;;;;15.90;4.60;;;14.10;99.90;;;;;;5017270;28;20059;-84
2023/02/23 13:27:44;;;;;;;13.88;4.65;;;14.10;99.90;;;;;;5024538;28;20054;-85
2023/02/23 13:30:12;;;;;;;14.10;5.43;;;14.20;99.90;;;;;;5025116;28;20560;-85
2023/02/23 13:32:38;;;;;;;9.05;3.58;;;14.20;99.90;;;;;;5029422;28;20069;-85
2023/02/23 13:35:13;;;;;;;11.63;4.57;;;14.20;99.90;;;;;;5030275;28;20144;-84
2023/02/23 13:37:47;;;;;;;12.90;4.72;;;14.20;99.90;;;;;;5019860;28;20090;-85
2023/02/23 13:40:29;;;;;;;14.43;4.85;;;14.20;99.90;;;;;;5015163;28;20714;-84
2023/02/23 13:43:16;;;;;;;20.95;5.95;;;14.30;99.90;;;;;;5041306;28;20073;-85
2023/02/23 13:46:27;;;;;;;12.00;4.68;;;14.30;99.90;;;;;;5027014;28;20049;-84
2023/02/23 13:49:24;;;;;;;11.15;4.68;;;14.40;99.90;;;;;;5026425;28;20447;-85
2023/02/23 13:51:56;;;;;;;11.05;4.75;;;14.40;99.90;;;;;;5016414;28;20077;-85
2023/02/23 13:54:30;;;;;;;14.38;4.80;;;14.40;99.90;;;;;;5034225;28;20516;-85
2023/02/23 13:57:04;;;;;;;15.98;4.97;;;14.30;99.90;;;;;;5020516;28;20050;-85
2023/02/23 13:59:40;;;;;;;12.50;4.72;;;14.30;99.90;;;;;;5029584;28;20049;-85
2023/02/23 14:02:37;;;;;;;12.93;4.35;;;14.30;99.90;;;;;;5028874;28;20425;-84
2023/02/23 14:05:15;;;;;;;14.48;4.97;;;14.30;99.90;;;;;;5024538;28;20049;-85
2023/02/23 14:07:46;;;;;;;14.85;4.07;;;14.30;99.90;;;;;;5028570;28;20129;-85
2023/02/23 14:10:23;;;;;;;10.90;4.45;;;14.30;99.90;;;;;;5024513;28;20475;-85
2023/02/23 14:13:26;;;;;;;15.85;5.05;;;14.30;99.90;;;;;;5021409;28;20046;-85
2023/02/23 14:16:13;;;;;;;11.95;5.10;;;14.20;99.90;;;;;;5027389;28;20089;-85
2023/02/23 14:18:52;;;;;;;11.13;4.72;;;14.20;99.90;;;;;;5022468;28;20081;-85
2023/02/23 14:21:32;;;;;;;17.85;5.75;;;14.20;99.90;;;;;;5023122;28;20129;-85
2023/02/23 14:24:16;;;;;;;11.45;3.63;;;14.20;99.90;;;;;;5021883;28;20061;-84
2023/02/23 14:27:01;;;;;;;10.63;4.43;;;14.20;99.90;;;;;;5026367;28;20124;-84